Shelby — WCV6157 — position and weather

sailwx.info

Track history (hours):
 
Tides and Currents Weather Stations Pressure Air Temp Water Temp Dewpoint Dewpoint Depression Visibility Wind Speed Wind Dir Waves Ship Positions

Shelby

Owner: WEEKS MARINE, INC., CRANFORD, NJ. More information available from US FCC via Universal Licensing System and Coast Guard Vessel Documentation Center.

Last reported at 2017-Feb-25 13:33 UTC. Time now 2017-Feb-25 13:49 UTC.
Position N 40°29' W 074°01'.

Length 22 m; draft 3.1 m.

Type: Tug. MMSI: 366902344.

Date/timePositionNaut miles runAvg speedWind from/ knotsBaromVisibWave heightAir tempDewpointWater temp
2017-Feb-25 13:33N 40°29' W 074°01'0 0.0
2017-Feb-25 12:33N 40°29' W 074°01'0 0.0
2017-Feb-25 11:25N 40°29' W 074°01'0 0.0
2017-Feb-25 10:33N 40°29' W 074°01'0 0.0
2017-Feb-25 06:32N 40°29' W 074°01'0 0.0
2017-Feb-25 05:33N 40°29' W 074°01'0 0.0
2017-Feb-25 04:33N 40°29' W 074°01'0 0.0
2017-Feb-25 03:33N 40°29' W 074°01'0 0.0
2017-Feb-25 02:32N 40°29' W 074°01'0 0.0
2017-Feb-25 01:33N 40°29' W 074°01'0 0.0
2017-Feb-25 00:33N 40°29' W 074°01'0 0.0
2017-Feb-24 23:20N 40°29' W 074°01'0 0.0
2017-Feb-24 22:31N 40°29' W 074°01'0 0.0
2017-Feb-24 21:33N 40°29' W 074°01'0 0.0
2017-Feb-24 18:32N 40°29' W 074°01'0 0.0
2017-Feb-24 17:33N 40°29' W 074°01'0 0.0
2017-Feb-24 16:33N 40°29' W 074°01'0 0.0
2017-Feb-24 15:32N 40°29' W 074°01'0 0.0
2017-Feb-24 14:31N 40°29' W 074°01'0 0.0
2017-Feb-24 13:33N 40°29' W 074°01'0 0.0
2017-Feb-24 12:33N 40°29' W 074°01'0 0.0
2017-Feb-24 11:33N 40°29' W 074°01'0 0.0
2017-Feb-24 10:33N 40°29' W 074°01'0 0.0
2017-Feb-24 09:33N 40°29' W 074°01'0 0.0
2017-Feb-24 08:10N 40°29' W 074°01'0 0.0
2017-Feb-24 06:30N 40°29' W 074°01'0 0.0
2017-Feb-24 05:33N 40°29' W 074°01'0 0.0
2017-Feb-24 04:33N 40°29' W 074°01'0 0.0
2017-Feb-24 03:33N 40°29' W 074°01'0 0.0
2017-Feb-24 02:33N 40°29' W 074°01'0 0.0
2017-Feb-24 01:33N 40°29' W 074°01'0 0.0
2017-Feb-24 00:33N 40°29' W 074°01'0 0.0
2017-Feb-23 23:33N 40°29' W 074°01'0 0.0
2017-Feb-23 22:33N 40°29' W 074°01'0 0.0
2017-Feb-23 21:33N 40°29' W 074°01'0 0.0
2017-Feb-23 20:33N 40°29' W 074°01'0 0.0
2017-Feb-23 19:33N 40°29' W 074°01'0 0.0
2017-Feb-23 17:32N 40°29' W 074°01'0 0.0
2017-Feb-23 16:33N 40°29' W 074°01'0 0.0
2017-Feb-23 15:33N 40°29' W 074°01'1 1.0
2017-Feb-23 14:22N 40°29' W 073°60'1 1.0
2017-Feb-23 13:11N 40°29' W 074°01'0 0.0
2017-Feb-23 12:29N 40°29' W 074°01'1 0.1
2017-Feb-23 06:33N 40°29' W 074°00'5 4.6
2017-Feb-23 05:33N 40°29' W 073°54'0 0.1
2017-Feb-23 03:23N 40°29' W 073°54'0 0.3
2017-Feb-23 02:22N 40°29' W 073°54'0 0.0
2017-Feb-23 01:26N 40°29' W 073°54'1 0.6
2017-Feb-23 00:31N 40°29' W 073°55'1 0.5
2017-Feb-22 23:17N 40°29' W 073°54'0 0.0
2017-Feb-22 22:32N 40°29' W 073°54'0 0.0
2017-Feb-22 20:28N 40°29' W 073°54'0 0.0
2017-Feb-22 18:28N 40°29' W 073°54'5 2.5
2017-Feb-22 16:20N 40°29' W 074°02'0 0.1
2017-Feb-22 15:03N 40°28' W 074°01'1 1.3
2017-Feb-22 14:11N 40°28' W 074°01'0 0.0
2017-Feb-22 13:32N 40°28' W 074°01'0 0.0
2017-Feb-22 12:33N 40°28' W 074°01'0 0.0
2017-Feb-22 11:32N 40°28' W 074°01'0 0.0
2017-Feb-22 10:33N 40°28' W 074°01'0 0.0
2017-Feb-22 09:32N 40°28' W 074°01'0 0.0
2017-Feb-22 08:32N 40°28' W 074°01'0 0.0
2017-Feb-22 07:33N 40°28' W 074°01'0 0.0
2017-Feb-22 06:33N 40°28' W 074°01'0 0.0
2017-Feb-22 05:33N 40°28' W 074°01'0 0.4
2017-Feb-22 04:24N 40°28' W 074°01'1 1.2
2017-Feb-22 03:33N 40°29' W 074°01'4 3.3
2017-Feb-22 02:25N 40°29' W 073°56'1 1.2
2017-Feb-22 01:29N 40°29' W 073°54'0 0.0
2017-Feb-22 00:33N 40°29' W 073°54'0 0.0
2017-Feb-21 22:31N 40°29' W 073°54'0 0.0
2017-Feb-21 15:16N 40°29' W 073°54'5 2.6
2017-Feb-21 13:29N 40°29' W 074°00'2 1.6
2017-Feb-21 12:33N 40°28' W 074°01'0 0.0
2017-Feb-21 11:33N 40°28' W 074°01'0 0.0
2017-Feb-21 10:33N 40°28' W 074°01'0 0.0
2017-Feb-21 09:33N 40°28' W 074°01'0 0.0
2017-Feb-21 08:32N 40°28' W 074°01'0 0.0
2017-Feb-21 07:33N 40°28' W 074°01'0 0.0
2017-Feb-21 06:32N 40°28' W 074°01'0 0.0
2017-Feb-21 05:33N 40°28' W 074°01'2 1.7
2017-Feb-21 04:33N 40°29' W 073°60'4 3.8
2017-Feb-21 03:27N 40°29' W 073°54'0 0.1
2017-Feb-21 02:29N 40°29' W 073°54'0 0.0
2017-Feb-20 23:32N 40°29' W 073°54'0 0.0
2017-Feb-20 22:28N 40°29' W 073°54'0 0.0
2017-Feb-20 20:14N 40°29' W 073°54'0 0.2
2017-Feb-20 17:28N 40°29' W 073°55'1 0.1
2017-Feb-20 13:32N 40°29' W 073°55'3 2.4
2017-Feb-20 12:25N 40°29' W 073°59'2 2.5
2017-Feb-20 11:32N 40°28' W 074°01'0 0.0
2017-Feb-20 10:33N 40°28' W 074°01'2 1.7
2017-Feb-20 09:33N 40°29' W 073°59'2 1.7
2017-Feb-20 08:33N 40°28' W 074°01'0 0.0
2017-Feb-20 07:33N 40°28' W 074°01'0 0.0
2017-Feb-20 06:33N 40°28' W 074°01'0 0.0
2017-Feb-20 05:33N 40°28' W 074°01'0 0.0
2017-Feb-20 03:10N 40°28' W 074°01'3 4.9
2017-Feb-20 02:33N 40°31' W 074°03'8 8.3
2017-Feb-20 01:33N 40°39' W 074°07'0 0.0
2017-Feb-20 00:29N 40°39' W 074°07'0 0.0
2017-Feb-19 22:17N 40°39' W 074°07'2 3.0
2017-Feb-19 21:33N 40°38' W 074°04'10 9.9
2017-Feb-19 20:33N 40°28' W 074°02'3 2.8
2017-Feb-19 19:33N 40°29' W 073°59'3 3.3
2017-Feb-19 18:32N 40°29' W 073°54'0 0.1
2017-Feb-19 17:31N 40°29' W 073°54'3 2.8
2017-Feb-19 16:26N 40°29' W 073°58'2 2.5
2017-Feb-19 15:33N 40°29' W 074°01'0 0.0
2017-Feb-19 14:33N 40°29' W 074°01'0 0.0
2017-Feb-19 13:28N 40°29' W 074°01'0 0.0
2017-Feb-19 12:33N 40°29' W 074°01'0 0.0
2017-Feb-19 11:33N 40°29' W 074°01'0 0.0
2017-Feb-19 10:33N 40°29' W 074°01'0 0.3
2017-Feb-19 09:33N 40°29' W 074°01'3 2.6
2017-Feb-19 08:32N 40°29' W 073°57'2 2.2
2017-Feb-19 07:29N 40°29' W 073°54'0 0.0
2017-Feb-19 04:32N 40°29' W 073°54'0 0.0
2017-Feb-19 03:25N 40°29' W 073°54'1 0.7
2017-Feb-19 02:29N 40°28' W 073°54'1 0.7
2017-Feb-19 01:31N 40°29' W 073°54'0 0.1
2017-Feb-19 00:33N 40°29' W 073°54'0 0.0
2017-Feb-18 23:32N 40°29' W 073°54'0 0.0
2017-Feb-18 22:33N 40°29' W 073°54'0 0.0
2017-Feb-18 21:33N 40°29' W 073°54'0 0.0
2017-Feb-18 20:33N 40°29' W 073°54'0 0.0
2017-Feb-18 19:31N 40°29' W 073°54'0 0.0
2017-Feb-18 18:31N 40°29' W 073°54'0 0.0
2017-Feb-18 17:33N 40°29' W 073°54'0 0.0
2017-Feb-18 16:33N 40°29' W 073°54'0 0.0
2017-Feb-18 13:31N 40°29' W 073°54'0 0.0
2017-Feb-18 12:33N 40°29' W 073°54'0 0.0
2017-Feb-18 11:29N 40°29' W 073°54'0 0.0
2017-Feb-18 10:05N 40°29' W 073°54'0 0.0
2017-Feb-18 09:28N 40°29' W 073°54'0 0.0
2017-Feb-18 08:33N 40°29' W 073°54'0 0.0
2017-Feb-18 07:24N 40°29' W 073°54'1 0.6
2017-Feb-18 06:29N 40°28' W 073°55'1 0.6
2017-Feb-18 05:33N 40°29' W 073°54'0 0.0
2017-Feb-18 04:33N 40°29' W 073°54'0 0.0
2017-Feb-18 03:31N 40°29' W 073°54'0 0.0
2017-Feb-18 02:31N 40°29' W 073°54'0 0.1
2017-Feb-17 23:33N 40°29' W 073°54'0 0.4
2017-Feb-17 22:33N 40°29' W 073°54'0 0.0
2017-Feb-17 19:04N 40°29' W 073°54'1 1.7
2017-Feb-17 18:21N 40°29' W 073°56'4 5.4
2017-Feb-17 17:33N 40°28' W 074°01'1 1.1
2017-Feb-17 16:33N 40°28' W 074°01'5 4.7
2017-Feb-17 15:32N 40°29' W 073°55'5 4.9
2017-Feb-17 14:33N 40°28' W 074°01'0 0.0
2017-Feb-17 13:33N 40°28' W 074°01'3 2.4
2017-Feb-17 12:28N 40°25' W 074°01'0 0.1
2017-Feb-17 11:33N 40°25' W 074°01'0 0.0
2017-Feb-17 06:26N 40°25' W 074°01'0 0.0
2017-Feb-17 05:32N 40°25' W 074°01'0 0.0
2017-Feb-17 04:22N 40°25' W 074°01'0 0.0
2017-Feb-17 03:33N 40°25' W 074°01'0 0.0
2017-Feb-17 02:32N 40°25' W 074°01'0 0.0
2017-Feb-17 01:33N 40°25' W 074°01'0 0.0
2017-Feb-17 00:32N 40°25' W 074°01'0 0.0
2017-Feb-16 23:30N 40°25' W 074°01'0 0.0
2017-Feb-16 22:32N 40°25' W 074°01'3 2.0
2017-Feb-16 21:16N 40°28' W 074°01'3 0.9
2017-Feb-16 18:18N 40°25' W 074°01'0 0.2
2017-Feb-16 16:28N 40°25' W 074°02'0 0.4
2017-Feb-16 15:24N 40°25' W 074°01'0 0.0
2017-Feb-16 14:27N 40°25' W 074°01'0 0.0
2017-Feb-16 13:33N 40°25' W 074°01'0 0.0
2017-Feb-16 12:33N 40°25' W 074°01'0 0.0
2017-Feb-16 07:32N 40°25' W 074°01'0 0.0
2017-Feb-16 06:34N 40°25' W 074°01'0 0.0
2017-Feb-16 05:32N 40°25' W 074°01'0 0.0
2017-Feb-16 04:33N 40°25' W 074°01'0 0.0
2017-Feb-16 03:33N 40°25' W 074°01'0 0.0
2017-Feb-16 02:33N 40°25' W 074°01'0 0.0
2017-Feb-16 01:33N 40°25' W 074°01'0 0.0
2017-Feb-16 00:33N 40°25' W 074°01'0 0.0
2017-Feb-15 23:32N 40°25' W 074°01'1 0.5
2017-Feb-15 22:29N 40°25' W 074°01'2 0.3
2017-Feb-15 15:33N 40°28' W 074°01'1 0.8
2017-Feb-15 14:32N 40°28' W 074°01'0 0.0
2017-Feb-15 13:33N 40°28' W 074°01'  
Track history (hours):
 
Tides and Currents Weather Stations Pressure Air Temp Water Temp Dewpoint Dewpoint Depression Visibility Wind Speed Wind Dir Waves Ship Positions

Shelby

Owner: WEEKS MARINE, INC., CRANFORD, NJ. More information available from US FCC via Universal Licensing System and Coast Guard Vessel Documentation Center.

Last reported at 2017-Feb-25 13:33 UTC. Time now 2017-Feb-25 13:49 UTC.
Position N 40°29' W 074°01'.

Length 22 m; draft 3.1 m.

Type: Tug. MMSI: 366902344.

Date/timePositionNaut miles runAvg speedWind from/ knotsBaromVisibWave heightAir tempDewpointWater temp
2017-Feb-25 13:33N 40°29' W 074°01'0 0.0
2017-Feb-25 12:33N 40°29' W 074°01'0 0.0
2017-Feb-25 11:25N 40°29' W 074°01'0 0.0
2017-Feb-25 10:33N 40°29' W 074°01'0 0.0
2017-Feb-25 06:32N 40°29' W 074°01'0 0.0
2017-Feb-25 05:33N 40°29' W 074°01'0 0.0
2017-Feb-25 04:33N 40°29' W 074°01'0 0.0
2017-Feb-25 03:33N 40°29' W 074°01'0 0.0
2017-Feb-25 02:32N 40°29' W 074°01'0 0.0
2017-Feb-25 01:33N 40°29' W 074°01'0 0.0
2017-Feb-25 00:33N 40°29' W 074°01'0 0.0
2017-Feb-24 23:20N 40°29' W 074°01'0 0.0
2017-Feb-24 22:31N 40°29' W 074°01'0 0.0
2017-Feb-24 21:33N 40°29' W 074°01'0 0.0
2017-Feb-24 18:32N 40°29' W 074°01'0 0.0
2017-Feb-24 17:33N 40°29' W 074°01'0 0.0
2017-Feb-24 16:33N 40°29' W 074°01'0 0.0
2017-Feb-24 15:32N 40°29' W 074°01'0 0.0
2017-Feb-24 14:31N 40°29' W 074°01'0 0.0
2017-Feb-24 13:33N 40°29' W 074°01'0 0.0
2017-Feb-24 12:33N 40°29' W 074°01'0 0.0
2017-Feb-24 11:33N 40°29' W 074°01'0 0.0
2017-Feb-24 10:33N 40°29' W 074°01'0 0.0
2017-Feb-24 09:33N 40°29' W 074°01'0 0.0
2017-Feb-24 08:10N 40°29' W 074°01'0 0.0
2017-Feb-24 06:30N 40°29' W 074°01'0 0.0
2017-Feb-24 05:33N 40°29' W 074°01'0 0.0
2017-Feb-24 04:33N 40°29' W 074°01'0 0.0
2017-Feb-24 03:33N 40°29' W 074°01'0 0.0
2017-Feb-24 02:33N 40°29' W 074°01'0 0.0
2017-Feb-24 01:33N 40°29' W 074°01'0 0.0
2017-Feb-24 00:33N 40°29' W 074°01'0 0.0
2017-Feb-23 23:33N 40°29' W 074°01'0 0.0
2017-Feb-23 22:33N 40°29' W 074°01'0 0.0
2017-Feb-23 21:33N 40°29' W 074°01'0 0.0
2017-Feb-23 20:33N 40°29' W 074°01'0 0.0
2017-Feb-23 19:33N 40°29' W 074°01'0 0.0
2017-Feb-23 17:32N 40°29' W 074°01'0 0.0
2017-Feb-23 16:33N 40°29' W 074°01'0 0.0
2017-Feb-23 15:33N 40°29' W 074°01'1 1.0
2017-Feb-23 14:22N 40°29' W 073°60'1 1.0
2017-Feb-23 13:11N 40°29' W 074°01'0 0.0
2017-Feb-23 12:29N 40°29' W 074°01'1 0.1
2017-Feb-23 06:33N 40°29' W 074°00'5 4.6
2017-Feb-23 05:33N 40°29' W 073°54'0 0.1
2017-Feb-23 03:23N 40°29' W 073°54'0 0.3
2017-Feb-23 02:22N 40°29' W 073°54'0 0.0
2017-Feb-23 01:26N 40°29' W 073°54'1 0.6
2017-Feb-23 00:31N 40°29' W 073°55'1 0.5
2017-Feb-22 23:17N 40°29' W 073°54'0 0.0
2017-Feb-22 22:32N 40°29' W 073°54'0 0.0
2017-Feb-22 20:28N 40°29' W 073°54'0 0.0
2017-Feb-22 18:28N 40°29' W 073°54'5 2.5
2017-Feb-22 16:20N 40°29' W 074°02'0 0.1
2017-Feb-22 15:03N 40°28' W 074°01'1 1.3
2017-Feb-22 14:11N 40°28' W 074°01'0 0.0
2017-Feb-22 13:32N 40°28' W 074°01'0 0.0
2017-Feb-22 12:33N 40°28' W 074°01'0 0.0
2017-Feb-22 11:32N 40°28' W 074°01'0 0.0
2017-Feb-22 10:33N 40°28' W 074°01'0 0.0
2017-Feb-22 09:32N 40°28' W 074°01'0 0.0
2017-Feb-22 08:32N 40°28' W 074°01'0 0.0
2017-Feb-22 07:33N 40°28' W 074°01'0 0.0
2017-Feb-22 06:33N 40°28' W 074°01'0 0.0
2017-Feb-22 05:33N 40°28' W 074°01'0 0.4
2017-Feb-22 04:24N 40°28' W 074°01'1 1.2
2017-Feb-22 03:33N 40°29' W 074°01'4 3.3
2017-Feb-22 02:25N 40°29' W 073°56'1 1.2
2017-Feb-22 01:29N 40°29' W 073°54'0 0.0
2017-Feb-22 00:33N 40°29' W 073°54'0 0.0
2017-Feb-21 22:31N 40°29' W 073°54'0 0.0
2017-Feb-21 15:16N 40°29' W 073°54'5 2.6
2017-Feb-21 13:29N 40°29' W 074°00'2 1.6
2017-Feb-21 12:33N 40°28' W 074°01'0 0.0
2017-Feb-21 11:33N 40°28' W 074°01'0 0.0
2017-Feb-21 10:33N 40°28' W 074°01'0 0.0
2017-Feb-21 09:33N 40°28' W 074°01'0 0.0
2017-Feb-21 08:32N 40°28' W 074°01'0 0.0
2017-Feb-21 07:33N 40°28' W 074°01'0 0.0
2017-Feb-21 06:32N 40°28' W 074°01'0 0.0
2017-Feb-21 05:33N 40°28' W 074°01'2 1.7
2017-Feb-21 04:33N 40°29' W 073°60'4 3.8
2017-Feb-21 03:27N 40°29' W 073°54'0 0.1
2017-Feb-21 02:29N 40°29' W 073°54'0 0.0
2017-Feb-20 23:32N 40°29' W 073°54'0 0.0
2017-Feb-20 22:28N 40°29' W 073°54'0 0.0
2017-Feb-20 20:14N 40°29' W 073°54'0 0.2
2017-Feb-20 17:28N 40°29' W 073°55'1 0.1
2017-Feb-20 13:32N 40°29' W 073°55'3 2.4
2017-Feb-20 12:25N 40°29' W 073°59'2 2.5
2017-Feb-20 11:32N 40°28' W 074°01'0 0.0
2017-Feb-20 10:33N 40°28' W 074°01'2 1.7
2017-Feb-20 09:33N 40°29' W 073°59'2 1.7
2017-Feb-20 08:33N 40°28' W 074°01'0 0.0
2017-Feb-20 07:33N 40°28' W 074°01'0 0.0
2017-Feb-20 06:33N 40°28' W 074°01'0 0.0
2017-Feb-20 05:33N 40°28' W 074°01'0 0.0
2017-Feb-20 03:10N 40°28' W 074°01'3 4.9
2017-Feb-20 02:33N 40°31' W 074°03'8 8.3
2017-Feb-20 01:33N 40°39' W 074°07'0 0.0
2017-Feb-20 00:29N 40°39' W 074°07'0 0.0
2017-Feb-19 22:17N 40°39' W 074°07'2 3.0
2017-Feb-19 21:33N 40°38' W 074°04'10 9.9
2017-Feb-19 20:33N 40°28' W 074°02'3 2.8
2017-Feb-19 19:33N 40°29' W 073°59'3 3.3
2017-Feb-19 18:32N 40°29' W 073°54'0 0.1
2017-Feb-19 17:31N 40°29' W 073°54'3 2.8
2017-Feb-19 16:26N 40°29' W 073°58'2 2.5
2017-Feb-19 15:33N 40°29' W 074°01'0 0.0
2017-Feb-19 14:33N 40°29' W 074°01'0 0.0
2017-Feb-19 13:28N 40°29' W 074°01'0 0.0
2017-Feb-19 12:33N 40°29' W 074°01'0 0.0
2017-Feb-19 11:33N 40°29' W 074°01'0 0.0
2017-Feb-19 10:33N 40°29' W 074°01'0 0.3
2017-Feb-19 09:33N 40°29' W 074°01'3 2.6
2017-Feb-19 08:32N 40°29' W 073°57'2 2.2
2017-Feb-19 07:29N 40°29' W 073°54'0 0.0
2017-Feb-19 04:32N 40°29' W 073°54'0 0.0
2017-Feb-19 03:25N 40°29' W 073°54'1 0.7
2017-Feb-19 02:29N 40°28' W 073°54'1 0.7
2017-Feb-19 01:31N 40°29' W 073°54'0 0.1
2017-Feb-19 00:33N 40°29' W 073°54'0 0.0
2017-Feb-18 23:32N 40°29' W 073°54'0 0.0
2017-Feb-18 22:33N 40°29' W 073°54'0 0.0
2017-Feb-18 21:33N 40°29' W 073°54'0 0.0
2017-Feb-18 20:33N 40°29' W 073°54'0 0.0
2017-Feb-18 19:31N 40°29' W 073°54'0 0.0
2017-Feb-18 18:31N 40°29' W 073°54'0 0.0
2017-Feb-18 17:33N 40°29' W 073°54'0 0.0
2017-Feb-18 16:33N 40°29' W 073°54'0 0.0
2017-Feb-18 13:31N 40°29' W 073°54'0 0.0
2017-Feb-18 12:33N 40°29' W 073°54'0 0.0
2017-Feb-18 11:29N 40°29' W 073°54'0 0.0
2017-Feb-18 10:05N 40°29' W 073°54'0 0.0
2017-Feb-18 09:28N 40°29' W 073°54'0 0.0
2017-Feb-18 08:33N 40°29' W 073°54'0 0.0
2017-Feb-18 07:24N 40°29' W 073°54'1 0.6
2017-Feb-18 06:29N 40°28' W 073°55'1 0.6
2017-Feb-18 05:33N 40°29' W 073°54'0 0.0
2017-Feb-18 04:33N 40°29' W 073°54'0 0.0
2017-Feb-18 03:31N 40°29' W 073°54'0 0.0
2017-Feb-18 02:31N 40°29' W 073°54'0 0.1
2017-Feb-17 23:33N 40°29' W 073°54'0 0.4
2017-Feb-17 22:33N 40°29' W 073°54'0 0.0
2017-Feb-17 19:04N 40°29' W 073°54'1 1.7
2017-Feb-17 18:21N 40°29' W 073°56'4 5.4
2017-Feb-17 17:33N 40°28' W 074°01'1 1.1
2017-Feb-17 16:33N 40°28' W 074°01'5 4.7
2017-Feb-17 15:32N 40°29' W 073°55'5 4.9
2017-Feb-17 14:33N 40°28' W 074°01'0 0.0
2017-Feb-17 13:33N 40°28' W 074°01'3 2.4
2017-Feb-17 12:28N 40°25' W 074°01'0 0.1
2017-Feb-17 11:33N 40°25' W 074°01'0 0.0
2017-Feb-17 06:26N 40°25' W 074°01'0 0.0
2017-Feb-17 05:32N 40°25' W 074°01'0 0.0
2017-Feb-17 04:22N 40°25' W 074°01'0 0.0
2017-Feb-17 03:33N 40°25' W 074°01'0 0.0
2017-Feb-17 02:32N 40°25' W 074°01'0 0.0
2017-Feb-17 01:33N 40°25' W 074°01'0 0.0
2017-Feb-17 00:32N 40°25' W 074°01'0 0.0
2017-Feb-16 23:30N 40°25' W 074°01'0 0.0
2017-Feb-16 22:32N 40°25' W 074°01'3 2.0
2017-Feb-16 21:16N 40°28' W 074°01'3 0.9
2017-Feb-16 18:18N 40°25' W 074°01'0 0.2
2017-Feb-16 16:28N 40°25' W 074°02'0 0.4
2017-Feb-16 15:24N 40°25' W 074°01'0 0.0
2017-Feb-16 14:27N 40°25' W 074°01'0 0.0
2017-Feb-16 13:33N 40°25' W 074°01'0 0.0
2017-Feb-16 12:33N 40°25' W 074°01'0 0.0
2017-Feb-16 07:32N 40°25' W 074°01'0 0.0
2017-Feb-16 06:34N 40°25' W 074°01'0 0.0
2017-Feb-16 05:32N 40°25' W 074°01'0 0.0
2017-Feb-16 04:33N 40°25' W 074°01'0 0.0
2017-Feb-16 03:33N 40°25' W 074°01'0 0.0
2017-Feb-16 02:33N 40°25' W 074°01'0 0.0
2017-Feb-16 01:33N 40°25' W 074°01'0 0.0
2017-Feb-16 00:33N 40°25' W 074°01'0 0.0
2017-Feb-15 23:32N 40°25' W 074°01'1 0.5
2017-Feb-15 22:29N 40°25' W 074°01'2 0.3
2017-Feb-15 15:33N 40°28' W 074°01'1 0.8
2017-Feb-15 14:32N 40°28' W 074°01'0 0.0
2017-Feb-15 13:33N 40°28' W 074°01'  

Dump ship's entire track history